Aeroporto :







RITROVATECI SU...

 
LOGIN :

Iscrizione | Disclaimer

   EN    FR    IT 

 









Sommario :    VFR   VFR Marginale   IFR   IFR Intensivo   IFR Molto Intensivo
Visibilità : 
Base nubi : 
>= 8 km
>= 3000ft
5 / 8 km
1000 / 3000 ft
1500m / 5 km
500 / 1000 ft
800 / 1500m
200 / 500 ft
< 800m
< 200 ft
Simboli :   Temporali  Nebbia  Neve Forte  Precipitazioni Forti  Vento > 20 kt






- Altitudine del aeroporto : 121 ft
- Codice IATA : YBX


CYBX - Lourdes De Blanc Sablon

ULTIMO METAR :
  • 040100Z 05007KT 15SM -SN OVC024 M02/M06 A3033 RMK SC8 SLP276

METARs OBSOLETI :
  • 040052Z 05008KT 15SM -SN OVC024 M02/M06 A3034 RMK SC8 SLP277
  • 040000Z 05008KT 15SM OVC025 M02/M06 A3034 RMK SC8 SLP279
  • 032300Z 04012KT 15SM OVC026 M01/M06 A3035 RMK SC8 SLP281

TAF AMD TAF CYBX
Valido dal 04 a 01 ore il 04 a 08 ore UTC


040108Z 0401/0408 05007KT P6SM OVC025
TEMPO 0401/0408 5SM -SN OVC020 RMK NXT FCST BY 040200Z



MetMap, La meteo Aeronautica in un colpo d'occhio ! - Copyright ORBIFLY Dicembre 2007 - Disclaimer

ORBIFLY MET'MAP TEAM :

Programmazione e sviluppo : Alexandra Zaïnal
Concezione : Baudouin d'Aumeries
Aiuto per la programmazione : Marc-Olivier Méhu
Supporto tecnico e logistico : Manuel Goepfert
Aiuto per la traduzione : Arnaldo La Scala

Contatto : metmap@orbifly.com




FONTI E CREDITI :

   NOAA